createdAt,value
2022-10-11T00:01:26.236Z,16.98
2022-10-11T00:03:52.854Z,17.05
2022-10-11T00:06:19.627Z,17.33
2022-10-11T00:08:46.212Z,17.47
2022-10-11T00:11:12.767Z,17.23
2022-10-11T00:13:39.378Z,17.06
2022-10-11T00:16:11.134Z,17.35
2022-10-11T00:18:38.743Z,17.46
2022-10-11T00:21:08.383Z,17.41
2022-10-11T00:23:35.464Z,17.30
2022-10-11T00:26:04.632Z,17.19
2022-10-11T00:28:32.071Z,16.72
2022-10-11T00:30:58.836Z,16.47
2022-10-11T00:33:25.672Z,16.56
2022-10-11T00:35:52.252Z,16.34
2022-10-11T00:38:19.130Z,16.25
2022-10-11T00:40:45.758Z,16.37
2022-10-11T00:43:18.546Z,16.33
2022-10-11T00:45:57.295Z,16.35
2022-10-11T00:48:33.138Z,16.91
2022-10-11T00:51:02.872Z,17.11
2022-10-11T00:53:32.014Z,17.23
2022-10-11T00:56:14.931Z,17.39
2022-10-11T00:58:42.563Z,17.34
2022-10-11T01:01:09.502Z,17.18
2022-10-11T01:03:38.543Z,16.94
2022-10-11T01:06:05.656Z,16.97
2022-10-11T01:08:32.704Z,17.10
2022-10-11T01:10:59.803Z,16.99
2022-10-11T01:13:48.664Z,17.00
2022-10-11T01:16:33.589Z,16.86
2022-10-11T01:19:23.042Z,16.82
2022-10-11T01:22:02.155Z,16.79
2022-10-11T01:24:46.736Z,16.94
2022-10-11T01:27:13.271Z,17.15
2022-10-11T01:29:51.760Z,17.21
2022-10-11T01:32:39.605Z,16.79
2022-10-11T01:35:22.281Z,16.47
2022-10-11T01:37:59.971Z,16.51
2022-10-11T01:40:37.013Z,16.40
2022-10-11T01:43:04.741Z,16.32
2022-10-11T01:45:33.570Z,16.84
2022-10-11T01:48:12.090Z,16.60
2022-10-11T01:50:45.273Z,16.95
2022-10-11T01:53:29.882Z,17.13
2022-10-11T01:56:02.882Z,17.25
2022-10-11T01:58:48.110Z,16.70
2022-10-11T02:01:32.607Z,16.68
2022-10-11T02:04:12.234Z,16.97
2022-10-11T02:06:50.494Z,16.81
2022-10-11T02:09:23.075Z,16.75
2022-10-11T02:11:49.751Z,16.23
2022-10-11T02:14:21.657Z,16.11
2022-10-11T02:16:54.728Z,15.99
2022-10-11T02:19:27.315Z,15.98
2022-10-11T02:22:01.160Z,16.46
2022-10-11T02:24:33.348Z,15.88
2022-10-11T02:27:02.717Z,15.53
2022-10-11T02:29:32.554Z,15.97
2022-10-11T02:32:00.608Z,16.50
2022-10-11T02:34:40.510Z,16.61
2022-10-11T02:37:27.853Z,16.40
2022-10-11T02:40:20.700Z,16.63
2022-10-11T02:42:58.809Z,16.36
2022-10-11T02:45:37.157Z,16.11
2022-10-11T02:48:06.121Z,15.85
2022-10-11T02:50:32.708Z,16.02
2022-10-11T02:52:59.300Z,15.64
2022-10-11T02:55:25.834Z,15.50
2022-10-11T02:57:52.824Z,15.68
2022-10-11T03:00:19.430Z,15.52
2022-10-11T03:02:45.965Z,16.00
2022-10-11T03:05:12.471Z,16.17
2022-10-11T03:07:39.019Z,16.42
2022-10-11T03:10:06.307Z,16.29
2022-10-11T03:12:32.869Z,16.45
2022-10-11T03:14:59.652Z,16.50
2022-10-11T03:17:42.574Z,16.34
2022-10-11T03:20:09.577Z,16.05
2022-10-11T03:22:36.181Z,15.94
2022-10-11T03:25:04.629Z,16.29
2022-10-11T03:27:32.768Z,16.69
2022-10-11T03:29:59.471Z,16.22
2022-10-11T03:32:26.345Z,16.09
2022-10-11T03:34:52.907Z,15.95
2022-10-11T03:37:19.476Z,16.46
2022-10-11T03:39:46.102Z,16.62
2022-10-11T03:42:13.754Z,15.90
2022-10-11T03:44:41.617Z,16.05
2022-10-11T03:47:08.534Z,15.98
2022-10-11T03:49:36.846Z,16.07
2022-10-11T03:52:06.535Z,16.48
2022-10-11T03:54:33.163Z,15.96
2022-10-11T03:56:59.760Z,15.85
2022-10-11T03:59:26.292Z,16.32
2022-10-11T04:01:52.873Z,16.25
2022-10-11T04:04:19.587Z,16.04
2022-10-11T04:06:46.153Z,16.04
2022-10-11T04:09:12.717Z,15.82
2022-10-11T04:11:39.507Z,15.81
2022-10-11T04:14:06.035Z,15.80
2022-10-11T04:16:32.600Z,16.19
2022-10-11T04:18:59.208Z,16.13
2022-10-11T04:21:25.739Z,15.97
2022-10-11T04:23:52.258Z,15.92
2022-10-11T04:26:18.800Z,16.24
2022-10-11T04:28:45.308Z,16.21
2022-10-11T04:31:11.922Z,16.26
2022-10-11T04:33:38.433Z,16.14
2022-10-11T04:36:05.600Z,16.17
2022-10-11T04:38:32.420Z,16.32
2022-10-11T04:41:10.175Z,16.06
2022-10-11T04:43:36.913Z,16.19
2022-10-11T04:46:04.462Z,16.40
2022-10-11T04:48:31.463Z,16.24
2022-10-11T04:50:58.065Z,16.34
2022-10-11T04:53:24.681Z,16.21
2022-10-11T04:56:05.516Z,16.40
2022-10-11T04:58:33.629Z,16.48
2022-10-11T05:01:02.998Z,16.47
2022-10-11T05:03:29.570Z,16.45
2022-10-11T05:05:56.160Z,16.34
2022-10-11T05:08:25.858Z,16.29
2022-10-11T05:11:00.743Z,16.40
2022-10-11T05:13:28.848Z,16.14
2022-10-11T05:15:55.534Z,16.47
2022-10-11T05:18:22.517Z,16.09
2022-10-11T05:20:49.209Z,16.11
2022-10-11T05:23:15.808Z,16.19
2022-10-11T05:25:42.371Z,16.18
2022-10-11T05:28:08.980Z,16.26
2022-10-11T05:30:35.557Z,16.37
2022-10-11T05:33:04.342Z,16.21
2022-10-11T05:35:30.879Z,16.14
2022-10-11T05:37:57.432Z,16.06
2022-10-11T05:40:23.969Z,16.06
2022-10-11T05:42:50.556Z,16.09
2022-10-11T05:45:17.074Z,16.16
2022-10-11T05:47:43.619Z,16.12
2022-10-11T05:50:10.278Z,16.35
2022-10-11T05:52:37.069Z,16.18
2022-10-11T05:55:04.368Z,16.31
2022-10-11T05:57:30.917Z,16.23
2022-10-11T05:59:57.739Z,16.19
2022-10-11T06:02:24.261Z,16.12
2022-10-11T06:04:50.814Z,16.29
2022-10-11T06:07:17.421Z,16.38
2022-10-11T06:09:43.999Z,16.40
2022-10-11T06:12:10.564Z,16.33
2022-10-11T06:14:37.138Z,16.48
2022-10-11T06:17:03.691Z,16.44
2022-10-11T06:19:30.209Z,16.12
2022-10-11T06:21:56.829Z,16.32
2022-10-11T06:24:23.359Z,16.50
2022-10-11T06:26:49.923Z,16.41
2022-10-11T06:29:16.427Z,16.42
2022-10-11T06:31:43.195Z,16.19
2022-10-11T06:34:09.758Z,16.06
2022-10-11T06:36:36.369Z,16.05
2022-10-11T06:39:02.991Z,16.10
2022-10-11T06:41:30.880Z,16.10
2022-10-11T06:43:57.626Z,16.12
2022-10-11T06:46:26.144Z,16.31
2022-10-11T06:48:53.851Z,16.46
2022-10-11T06:51:21.849Z,16.40
2022-10-11T06:53:55.362Z,16.09
2022-10-11T06:56:22.406Z,16.09
2022-10-11T06:58:50.929Z,16.06
2022-10-11T07:01:20.502Z,16.12
2022-10-11T07:03:48.129Z,15.98
2022-10-11T07:06:18.106Z,15.93
2022-10-11T07:08:44.971Z,16.13
2022-10-11T07:11:14.008Z,16.06
2022-10-11T07:13:41.189Z,16.13
2022-10-11T07:16:11.567Z,15.81
2022-10-11T07:18:39.102Z,15.33
2022-10-11T07:21:08.200Z,15.61
2022-10-11T07:23:35.211Z,15.38
2022-10-11T07:26:01.978Z,15.29
2022-10-11T07:28:30.532Z,15.48
2022-10-11T07:30:58.400Z,15.08
2022-10-11T07:33:25.150Z,14.89
2022-10-11T07:35:51.732Z,15.34
2022-10-11T07:38:18.353Z,15.27
2022-10-11T07:40:46.403Z,15.27
2022-10-11T07:43:14.039Z,15.75
2022-10-11T07:45:42.457Z,15.59
2022-10-11T07:48:09.051Z,15.28
2022-10-11T07:50:35.622Z,15.33
2022-10-11T07:53:03.085Z,15.43
2022-10-11T07:55:31.577Z,15.63
2022-10-11T07:57:58.093Z,15.98
2022-10-11T08:00:24.796Z,16.16
2022-10-11T08:02:51.346Z,15.99
2022-10-11T08:05:17.982Z,15.85
2022-10-11T08:07:44.477Z,15.80
2022-10-11T08:10:11.116Z,15.57
2022-10-11T08:12:37.698Z,15.75
2022-10-11T08:15:04.589Z,15.92
2022-10-11T08:17:31.153Z,15.51
2022-10-11T08:19:58.094Z,15.33
2022-10-11T08:22:24.641Z,15.30
2022-10-11T08:26:06.297Z,15.14
2022-10-11T08:28:33.489Z,15.08
2022-10-11T08:31:00.305Z,15.19
2022-10-11T08:33:26.990Z,15.16
2022-10-11T08:35:54.061Z,15.61
2022-10-11T08:38:21.078Z,15.24
2022-10-11T08:40:50.847Z,15.30
2022-10-11T08:44:02.356Z,15.31
2022-10-11T08:46:32.580Z,15.42
2022-10-11T08:49:00.542Z,15.43
2022-10-11T08:51:32.031Z,15.44
2022-10-11T08:54:17.163Z,15.62
2022-10-11T08:56:44.895Z,15.44
2022-10-11T08:59:20.909Z,15.31
2022-10-11T09:01:54.224Z,15.23
2022-10-11T09:04:20.979Z,15.10
2022-10-11T09:07:06.744Z,14.88
2022-10-11T09:10:04.572Z,15.00
2022-10-11T09:12:46.272Z,15.30
2022-10-11T09:15:25.141Z,15.42
2022-10-11T09:18:06.765Z,15.33
2022-10-11T09:20:53.071Z,15.17
2022-10-11T09:23:25.310Z,15.28
2022-10-11T09:26:04.953Z,15.64
2022-10-11T09:28:56.191Z,15.25
2022-10-11T09:31:28.183Z,15.10
2022-10-11T09:33:56.274Z,15.16
2022-10-11T09:36:39.412Z,15.45
2022-10-11T09:39:35.428Z,15.24
2022-10-11T09:42:12.106Z,15.33
2022-10-11T09:44:50.600Z,15.44
2022-10-11T09:47:22.278Z,15.33
2022-10-11T09:50:03.294Z,15.50
2022-10-11T09:52:30.635Z,15.66
2022-10-11T09:55:02.144Z,15.77
2022-10-11T09:57:35.822Z,15.52
2022-10-11T10:00:14.632Z,15.44
2022-10-11T10:02:52.988Z,15.34
2022-10-11T10:05:22.887Z,15.49
2022-10-11T10:08:04.276Z,15.52
2022-10-11T10:10:31.471Z,15.78
2022-10-11T10:13:00.618Z,15.71
2022-10-11T10:15:33.511Z,15.89
2022-10-11T10:18:00.305Z,15.66
2022-10-11T10:20:31.733Z,15.89
2022-10-11T10:23:10.334Z,15.61
2022-10-11T10:25:43.312Z,15.62
2022-10-11T10:28:28.324Z,15.88
2022-10-11T10:30:59.421Z,16.16
2022-10-11T10:33:31.286Z,16.02
2022-10-11T10:36:08.125Z,15.73
2022-10-11T10:39:05.878Z,15.59
2022-10-11T10:41:32.707Z,16.00
2022-10-11T10:44:00.701Z,16.09
2022-10-11T10:46:55.980Z,15.98
2022-10-11T10:50:00.360Z,15.76
2022-10-11T10:52:58.543Z,15.93
2022-10-11T10:55:42.668Z,15.89
2022-10-11T10:58:36.308Z,16.08
2022-10-11T11:01:12.870Z,15.88
2022-10-11T11:03:46.365Z,15.72
2022-10-11T11:06:27.462Z,15.87
2022-10-11T11:09:18.758Z,15.88
2022-10-11T11:11:48.213Z,15.73
2022-10-11T11:14:33.113Z,15.78
2022-10-11T11:17:28.258Z,16.01
2022-10-11T11:20:19.266Z,16.08
2022-10-11T11:23:02.127Z,16.25
2022-10-11T11:25:48.795Z,16.10
2022-10-11T11:28:24.351Z,15.80
2022-10-11T11:31:09.251Z,15.67
2022-10-11T11:33:55.288Z,16.17
2022-10-11T11:36:38.964Z,16.19
2022-10-11T11:39:12.494Z,16.22
2022-10-11T11:41:52.257Z,16.07
2022-10-11T11:44:38.103Z,15.98
2022-10-11T11:47:37.986Z,15.82
2022-10-11T11:50:22.643Z,15.89
2022-10-11T11:53:04.665Z,15.79
2022-10-11T11:55:42.201Z,15.77
2022-10-11T11:58:27.559Z,15.57
2022-10-11T12:01:03.774Z,15.66
2022-10-11T12:03:41.263Z,15.84
2022-10-11T12:06:14.540Z,15.68
2022-10-11T12:08:44.467Z,15.56
2022-10-11T12:11:21.356Z,15.59
2022-10-11T12:13:50.841Z,15.48
2022-10-11T12:16:18.356Z,15.59
2022-10-11T12:18:56.697Z,15.59
2022-10-11T12:21:36.705Z,15.57
2022-10-11T12:24:06.867Z,15.57
2022-10-11T12:26:44.331Z,15.53
2022-10-11T12:29:16.970Z,15.64
2022-10-11T12:31:46.233Z,15.67
2022-10-11T12:34:25.204Z,15.73
2022-10-11T12:36:51.904Z,15.59
2022-10-11T12:39:18.358Z,15.74
2022-10-11T12:41:50.964Z,15.65
2022-10-11T12:44:29.766Z,15.70
2022-10-11T12:46:57.836Z,15.95
2022-10-11T12:49:50.851Z,15.95
2022-10-11T12:52:17.570Z,15.89
2022-10-11T12:54:49.875Z,15.90
2022-10-11T12:57:45.239Z,15.68
2022-10-11T13:00:49.815Z,15.79
2022-10-11T13:03:42.848Z,15.99
2022-10-11T13:06:11.624Z,15.81
2022-10-11T13:08:43.127Z,15.90
2022-10-11T13:11:16.822Z,16.05
2022-10-11T13:14:10.662Z,16.00
2022-10-11T13:17:28.118Z,16.37
2022-10-11T13:20:24.126Z,16.10
2022-10-11T13:22:53.669Z,16.13
2022-10-11T13:25:26.850Z,16.07
2022-10-11T13:27:56.498Z,16.00
2022-10-11T13:30:34.413Z,15.98
2022-10-11T13:33:05.728Z,16.11
2022-10-11T13:35:32.208Z,15.94
2022-10-11T13:37:59.453Z,16.00
2022-10-11T13:40:26.877Z,15.84
2022-10-11T13:42:54.961Z,15.94
2022-10-11T13:45:27.135Z,15.76
2022-10-11T13:47:54.938Z,15.80
2022-10-11T13:50:32.030Z,15.61
2022-10-11T13:53:01.465Z,16.09
2022-10-11T13:55:35.093Z,15.76
2022-10-11T13:58:10.649Z,15.66
2022-10-11T14:00:39.883Z,15.82
2022-10-11T14:03:12.409Z,16.00
2022-10-11T14:05:42.494Z,16.24
2022-10-11T14:08:35.379Z,15.62
2022-10-11T14:11:06.288Z,15.66
2022-10-11T14:13:37.749Z,15.98
2022-10-11T14:16:14.044Z,16.11
2022-10-11T14:18:48.667Z,16.12
2022-10-11T14:21:45.889Z,15.84
2022-10-11T14:24:13.483Z,16.09
2022-10-11T14:26:45.951Z,15.70
2022-10-11T14:29:18.199Z,15.54
2022-10-11T14:31:45.156Z,15.85
2022-10-11T14:34:18.205Z,15.65
2022-10-11T14:36:45.022Z,15.69
2022-10-11T14:39:21.584Z,15.81
2022-10-11T14:41:49.403Z,15.85
2022-10-11T14:44:17.123Z,16.19
2022-10-11T14:46:45.650Z,15.93
2022-10-11T14:49:20.950Z,15.79
2022-10-11T14:51:49.690Z,16.00
2022-10-11T14:54:22.572Z,15.72
2022-10-11T14:56:51.052Z,15.83
2022-10-11T14:59:20.725Z,15.75
2022-10-11T15:01:51.686Z,15.78
2022-10-11T15:04:19.201Z,16.12
2022-10-11T15:06:45.777Z,16.17
2022-10-11T15:09:12.551Z,16.30
2022-10-11T15:11:39.197Z,15.84
2022-10-11T15:14:06.437Z,15.79
2022-10-11T15:16:34.022Z,15.85
2022-10-11T15:19:00.826Z,15.68
2022-10-11T15:21:29.205Z,15.72
2022-10-11T15:23:56.261Z,15.84
2022-10-11T15:26:27.167Z,15.96
2022-10-11T15:28:55.788Z,15.79
2022-10-11T15:31:23.000Z,15.82
2022-10-11T15:33:49.898Z,15.77
2022-10-11T15:36:22.261Z,15.87
2022-10-11T15:38:49.420Z,15.99
2022-10-11T15:41:18.846Z,16.06
2022-10-11T15:43:46.972Z,16.07
2022-10-11T15:46:17.328Z,16.07
2022-10-11T15:48:45.435Z,15.87
2022-10-11T15:51:12.299Z,15.81
2022-10-11T15:53:39.902Z,15.89
2022-10-11T15:56:09.988Z,15.79
2022-10-11T15:58:39.342Z,15.74
2022-10-11T16:01:17.889Z,15.80
2022-10-11T16:03:46.247Z,15.58
2022-10-11T16:06:13.465Z,15.58
2022-10-11T16:08:40.555Z,15.42
2022-10-11T16:11:08.918Z,15.37
2022-10-11T16:13:36.466Z,15.68
2022-10-11T16:16:05.307Z,15.67
2022-10-11T16:18:35.271Z,15.76
2022-10-11T16:21:06.600Z,15.87
2022-10-11T16:23:33.395Z,15.79
2022-10-11T16:26:03.920Z,15.69
2022-10-11T16:28:31.420Z,15.68
2022-10-11T16:30:58.286Z,15.77
2022-10-11T16:33:25.355Z,15.79
2022-10-11T16:35:51.977Z,15.59
2022-10-11T16:38:18.576Z,15.84
2022-10-11T16:40:45.174Z,15.72
2022-10-11T16:43:11.827Z,15.77
2022-10-11T16:45:38.474Z,15.87
2022-10-11T16:48:05.497Z,15.89
2022-10-11T16:50:36.803Z,15.53
2022-10-11T16:53:05.722Z,15.48
2022-10-11T16:55:32.268Z,15.62
2022-10-11T16:57:58.791Z,15.63
2022-10-11T17:00:25.365Z,15.68
2022-10-11T17:02:52.001Z,15.79
2022-10-11T17:05:19.060Z,15.88
2022-10-11T17:07:45.619Z,16.15
2022-10-11T17:10:12.161Z,15.88
2022-10-11T17:12:38.743Z,15.79
2022-10-11T17:15:06.143Z,15.90
2022-10-11T17:17:32.683Z,15.66
2022-10-11T17:19:59.247Z,15.73
2022-10-11T17:22:26.090Z,15.67
2022-10-11T17:24:52.799Z,15.88
2022-10-11T17:27:19.388Z,15.94
2022-10-11T17:29:45.985Z,15.93
2022-10-11T17:32:12.543Z,16.05
2022-10-11T17:34:39.287Z,16.14
2022-10-11T17:37:06.135Z,15.76
2022-10-11T17:39:32.760Z,15.92
2022-10-11T17:42:04.913Z,15.89
2022-10-11T17:44:31.432Z,16.30
2022-10-11T17:46:57.997Z,16.05
2022-10-11T17:49:24.511Z,15.74
2022-10-11T17:51:51.032Z,15.79
2022-10-11T17:54:17.586Z,15.90
2022-10-11T17:56:44.103Z,15.74
2022-10-11T17:59:15.967Z,15.79
2022-10-11T18:01:42.673Z,15.76
2022-10-11T18:04:16.325Z,15.62
2022-10-11T18:06:45.245Z,15.83
2022-10-11T18:09:13.474Z,15.61
2022-10-11T18:11:40.316Z,15.77
2022-10-11T18:14:06.950Z,15.74
2022-10-11T18:16:36.108Z,15.77
2022-10-11T18:19:05.401Z,15.32
2022-10-11T18:21:34.648Z,15.76
2022-10-11T18:24:04.842Z,15.95
2022-10-11T18:26:31.401Z,15.64
2022-10-11T18:28:58.377Z,15.73
2022-10-11T18:31:28.371Z,15.66
2022-10-11T18:33:55.484Z,15.92
2022-10-11T18:36:24.159Z,15.83
2022-10-11T18:38:54.883Z,15.69
2022-10-11T18:41:23.911Z,15.44
2022-10-11T18:43:55.122Z,15.35
2022-10-11T18:46:22.559Z,15.30
2022-10-11T18:48:51.175Z,15.26
2022-10-11T18:51:27.043Z,15.29
2022-10-11T18:53:54.617Z,15.29
2022-10-11T18:56:23.748Z,15.50
2022-10-11T18:58:52.135Z,15.32
2022-10-11T19:01:24.290Z,15.30
2022-10-11T19:03:53.920Z,15.29
2022-10-11T19:06:23.293Z,15.60
2022-10-11T19:09:21.977Z,15.38
2022-10-11T19:11:50.063Z,15.78
2022-10-11T19:14:18.403Z,15.71
2022-10-11T19:16:49.662Z,15.87
2022-10-11T19:19:16.515Z,15.66
2022-10-11T19:21:43.083Z,15.75
2022-10-11T19:24:09.631Z,15.80
2022-10-11T19:26:38.660Z,16.00
2022-10-11T19:29:07.003Z,15.95
2022-10-11T19:31:35.897Z,16.07
2022-10-11T19:34:02.977Z,15.96
2022-10-11T19:36:33.995Z,16.07
2022-10-11T19:39:02.917Z,15.97
2022-10-11T19:41:29.549Z,15.93
2022-10-11T19:43:58.144Z,16.05
2022-10-11T19:46:50.561Z,15.87
2022-10-11T19:49:15.650Z,16.10
2022-10-11T19:51:42.229Z,16.17
2022-10-11T19:54:12.425Z,16.05
2022-10-11T19:56:39.058Z,16.00
2022-10-11T19:59:08.958Z,15.94
2022-10-11T20:01:36.541Z,15.72
2022-10-11T20:04:06.262Z,15.60
2022-10-11T20:06:38.377Z,15.73
2022-10-11T20:09:28.050Z,15.55
2022-10-11T20:11:53.567Z,15.89
2022-10-11T20:14:20.527Z,16.11
2022-10-11T20:16:49.959Z,15.75
2022-10-11T20:19:16.646Z,15.96
2022-10-11T20:21:43.916Z,15.67
2022-10-11T20:24:10.776Z,15.82
2022-10-11T20:26:37.544Z,16.09
2022-10-11T20:29:04.117Z,15.62
2022-10-11T20:31:33.958Z,15.98
2022-10-11T20:34:03.361Z,16.09
2022-10-11T20:36:31.239Z,16.05
2022-10-11T20:38:59.140Z,15.64
2022-10-11T20:41:34.068Z,15.77
2022-10-11T20:44:01.845Z,15.83
2022-10-11T20:46:32.190Z,15.47
2022-10-11T20:49:10.382Z,15.89
2022-10-11T20:51:38.983Z,15.94
2022-10-11T20:54:05.986Z,16.10
2022-10-11T20:56:33.717Z,15.85
2022-10-11T20:59:00.398Z,16.03
2022-10-11T21:01:38.961Z,15.76
2022-10-11T21:04:07.080Z,15.80
2022-10-11T21:06:34.387Z,15.83
2022-10-11T21:09:02.214Z,16.09
2022-10-11T21:11:31.776Z,16.03
2022-10-11T21:14:00.615Z,15.76
2022-10-11T21:16:27.357Z,15.53
2022-10-11T21:18:55.445Z,15.88
2022-10-11T21:21:23.839Z,15.92
2022-10-11T21:23:53.835Z,15.78
2022-10-11T21:26:20.656Z,15.51
2022-10-11T21:28:47.438Z,15.75
2022-10-11T21:31:18.555Z,15.60
2022-10-11T21:33:45.169Z,15.88
2022-10-11T21:36:17.729Z,15.90
2022-10-11T21:38:44.441Z,15.48
2022-10-11T21:41:14.508Z,15.57
2022-10-11T21:43:41.366Z,15.93
2022-10-11T21:46:42.027Z,15.94
2022-10-11T21:49:14.721Z,16.05
2022-10-11T21:51:41.302Z,15.99
2022-10-11T21:54:07.953Z,16.09
2022-10-11T21:56:34.956Z,15.43
2022-10-11T21:59:01.539Z,15.33
2022-10-11T22:01:28.185Z,15.85
2022-10-11T22:03:54.933Z,15.96
2022-10-11T22:06:21.707Z,15.86
2022-10-11T22:08:49.842Z,15.60
2022-10-11T22:11:16.775Z,15.53
2022-10-11T22:13:43.298Z,15.79
2022-10-11T22:16:12.183Z,15.57
2022-10-11T22:18:39.553Z,15.51
2022-10-11T22:21:19.555Z,15.31
2022-10-11T22:23:47.883Z,15.22
2022-10-11T22:26:25.400Z,15.38
2022-10-11T22:28:53.392Z,15.32
2022-10-11T22:31:21.661Z,15.09
2022-10-11T22:33:48.812Z,15.17
2022-10-11T22:36:19.305Z,15.34
2022-10-11T22:38:47.442Z,15.51
2022-10-11T22:41:13.990Z,15.83
2022-10-11T22:43:40.647Z,15.79
2022-10-11T22:46:08.202Z,15.50
2022-10-11T22:48:35.049Z,15.18
2022-10-11T22:51:02.087Z,15.47
2022-10-11T22:53:29.102Z,15.54
2022-10-11T22:55:55.699Z,15.52
2022-10-11T22:58:22.322Z,15.30
2022-10-11T23:00:49.092Z,15.43
2022-10-11T23:03:17.407Z,15.64
2022-10-11T23:05:43.987Z,15.57
2022-10-11T23:08:10.606Z,15.54
2022-10-11T23:10:40.546Z,15.35
2022-10-11T23:13:07.317Z,15.54
2022-10-11T23:15:33.866Z,15.30
2022-10-11T23:18:00.402Z,15.29
2022-10-11T23:20:26.987Z,15.41
2022-10-11T23:22:53.557Z,15.57
2022-10-11T23:25:20.077Z,15.49
2022-10-11T23:27:46.601Z,15.57
2022-10-11T23:30:13.817Z,14.99
2022-10-11T23:32:40.474Z,15.39
2022-10-11T23:35:07.387Z,15.32
2022-10-11T23:37:33.925Z,15.52
2022-10-11T23:40:00.445Z,15.61
2022-10-11T23:42:27.090Z,15.31
2022-10-11T23:44:54.183Z,15.21
2022-10-11T23:47:20.857Z,15.27
2022-10-11T23:49:47.458Z,15.18
2022-10-11T23:52:13.980Z,15.37
2022-10-11T23:54:40.539Z,15.26
2022-10-11T23:57:07.144Z,15.20
2022-10-11T23:59:33.713Z,15.48
